Terminal Aerodrome Forecast
Issued by NWS Portland, OR

Home | Current Version | Previous Version | Text Only | Print | Product List | Glossary On
Versions: 1 2 3 4 5 6 7 8 9 10 11 12 13 14 15 16 17 18 19 20 21 22 23 24 25 26 27 28
427
FTUS46 KPQR 280520
TAFAST
TAF
KAST 280520Z 2806/2906 20007KT P6SM SCT025 OVC050
      TEMPO 2806/2810 -RA BKN025 OVC040
     FM281000 19010KT 6SM -RA BR BKN022 OVC035
     FM281900 18013G21KT P6SM -SHRA SCT020 BKN035 OVC045
     FM290200 18014G22KT 6SM -RA BKN018 OVC030=

USA.gov is the U.S. government's official web portal to all federal, state and local government web resources and services.